Time;durP1;ratioP1;P1;durP2;ratioP2;P2;SDS_P1;SDS_P2;PMS_P1;PMS_P2;Temp;Humidity;BMP_temperature;BMP_pressure;BME280_temperature;BME280_humidity;BME280_pressure;Samples;Min_cycle;Max_cycle;Signal;HPM_P1;HPM_P2
2021/12/07 00:01:17;;;;;;;;;;;;;;;;;;5086254;28;1239;-76
2021/12/07 00:03:43;;;;;;;;;;;;;;;;;;5075811;28;1223;-76
2021/12/07 00:06:08;;;;;;;;;;;;;;;;;;5087419;28;1188;-75
2021/12/07 00:08:39;;;;;;;;;;;;;;;;;;5074476;28;1177;-76
2021/12/07 00:11:05;;;;;;;;;;;;;;;;;;5055544;28;1342;-76
2021/12/07 00:13:35;;;;;;;;;;;;;;;;;;5072886;28;1973;-77
2021/12/07 00:16:02;;;;;;;;;;;;;;;;;;5087391;28;1198;-75
2021/12/07 00:18:27;;;;;;;;;;;;;;;;;;5059730;28;1231;-76
2021/12/07 00:20:53;;;;;;;;;;;;;;;;;;5092090;28;1233;-76
2021/12/07 00:23:18;;;;;;;;;;;;;;;;;;5051443;28;1266;-76
2021/12/07 00:25:43;;;;;;;;;;;;;;;;;;5102790;28;1191;-74
2021/12/07 00:28:09;;;;;;;;;;;;;;;;;;5084999;28;1322;-75
2021/12/07 00:30:35;;;;;;;;;;;;;;;;;;5081965;28;1231;-77
2021/12/07 00:33:14;;;;;;;;;;;;;;;;;;5065382;28;1696;-76
2021/12/07 00:35:40;;;;;;;;;;;;;;;;;;5085389;28;1889;-76
2021/12/07 00:38:08;;;;;;;;;;;;;;;;;;5051498;28;1267;-77
2021/12/07 00:40:34;;;;;;;;;;;;;;;;;;5068245;28;1254;-77
2021/12/07 00:42:59;;;;;;;;;;;;;;;;;;5084168;28;1199;-76
2021/12/07 00:45:25;;;;;;;;;;;;;;;;;;5092345;28;1342;-76
2021/12/07 00:47:52;;;;;;;;;;;;;;;;;;5063534;28;1322;-76
2021/12/07 00:50:18;;;;;;;;;;;;;;;;;;5085866;28;1290;-76
2021/12/07 00:52:43;;;;;;;;;;;;;;;;;;5073677;28;1195;-76
2021/12/07 00:55:10;;;;;;;;;;;;;;;;;;5089686;28;1913;-75
2021/12/07 00:57:36;;;;;;;;;;;;;;;;;;5091233;28;1210;-76
2021/12/07 01:00:04;;;;;;;;;;;;;;;;;;5066895;28;1167;-76
2021/12/07 01:02:29;;;;;;;;;;;;;;;;;;5065209;28;1514;-76
2021/12/07 01:05:02;;;;;;;;;;;;;;;;;;5085587;28;1167;-77
2021/12/07 01:26:39;;;;;;;;;;;;;;;;;;5077796;28;997;-75
2021/12/07 01:29:05;;;;;;;;;;;;;;;;;;5083185;28;1088;-75
2021/12/07 01:31:46;;;;;;;;;;;;;;;;;;5065397;28;1184;-76
2021/12/07 01:36:51;;;;;;;;;;;;;;;;;;5087608;28;1155;-75
2021/12/07 01:45:15;;;;;;;;;;;;;;;;;;5083652;28;1129;-75
2021/12/07 01:50:33;;;;;;;;;;;;;;;;;;5086852;28;1170;-76
2021/12/07 02:00:53;;;;;;;;;;;;;;;;;;5069401;28;1070;-76
2021/12/07 02:03:18;;;;;;;;;;;;;;;;;;5064244;28;1168;-75
2021/12/07 02:05:44;;;;;;;;;;;;;;;;;;5070647;28;1475;-76
2021/12/07 02:08:10;;;;;;;;;;;;;;;;;;5066826;28;1180;-75
2021/12/07 02:10:36;;;;;;;;;;;;;;;;;;5071258;28;1068;-75
2021/12/07 02:13:06;;;;;;;;;;;;;;;;;;5100882;28;1028;-75
2021/12/07 02:15:32;;;;;;;;;;;;;;;;;;5105694;28;2226;-76
2021/12/07 02:17:58;;;;;;;;;;;;;;;;;;5066137;28;1299;-75
2021/12/07 02:20:27;;;;;;;;;;;;;;;;;;5106098;28;1218;-76
2021/12/07 02:22:52;;;;;;;;;;;;;;;;;;5084709;28;1337;-75
2021/12/07 02:25:18;;;;;;;;;;;;;;;;;;5084127;28;1179;-76
2021/12/07 02:27:45;;;;;;;;;;;;;;;;;;5080335;28;1187;-76
2021/12/07 02:30:12;;;;;;;;;;;;;;;;;;5074708;28;1148;-76
2021/12/07 02:32:38;;;;;;;;;;;;;;;;;;5086212;28;1349;-76
2021/12/07 02:35:04;;;;;;;;;;;;;;;;;;5090409;28;1898;-76
2021/12/07 02:37:30;;;;;;;;;;;;;;;;;;5072816;28;1164;-76
2021/12/07 02:39:55;;;;;;;;;;;;;;;;;;5076494;28;1247;-76
2021/12/07 02:42:21;;;;;;;;;;;;;;;;;;5090792;28;1222;-76
2021/12/07 02:44:53;;;;;;;;;;;;;;;;;;5053598;28;1231;-76
2021/12/07 02:47:19;;;;;;;;;;;;;;;;;;5051069;28;1419;-76
2021/12/07 02:49:44;;;;;;;;;;;;;;;;;;5070855;28;1235;-77
2021/12/07 02:52:11;;;;;;;;;;;;;;;;;;5068521;28;1194;-76
2021/12/07 02:54:37;;;;;;;;;;;;;;;;;;5071278;28;1968;-76
2021/12/07 02:57:05;;;;;;;;;;;;;;;;;;5068809;28;1358;-76
2021/12/07 02:59:30;;;;;;;;;;;;;;;;;;5086822;28;1203;-76
2021/12/07 03:02:02;;;;;;;;;;;;;;;;;;5064737;28;1191;-75
2021/12/07 03:04:36;;;;;;;;;;;;;;;;;;5102158;28;969;-75
2021/12/07 03:07:17;;;;;;;;;;;;;;;;;;5068329;28;1579;-75
2021/12/07 03:26:04;;;;;;;;;;;;;;;;;;5088677;28;929;-75
2021/12/07 03:28:32;;;;;;;;;;;;;;;;;;5066929;28;1242;-75
2021/12/07 03:30:58;;;;;;;;;;;;;;;;;;5101135;28;1168;-76
2021/12/07 03:33:23;;;;;;;;;;;;;;;;;;5085324;28;1060;-76
2021/12/07 03:35:48;;;;;;;;;;;;;;;;;;5088014;28;1881;-75
2021/12/07 03:38:13;;;;;;;;;;;;;;;;;;5086347;28;1167;-76
2021/12/07 03:40:39;;;;;;;;;;;;;;;;;;5090013;28;1354;-76
2021/12/07 03:43:05;;;;;;;;;;;;;;;;;;5084789;28;1112;-76
2021/12/07 03:45:33;;;;;;;;;;;;;;;;;;5087752;28;1275;-76
2021/12/07 03:47:59;;;;;;;;;;;;;;;;;;5083571;28;1335;-76
2021/12/07 03:50:25;;;;;;;;;;;;;;;;;;5109542;28;1194;-76
2021/12/07 03:52:52;;;;;;;;;;;;;;;;;;5055485;28;1203;-76
2021/12/07 03:55:18;;;;;;;;;;;;;;;;;;5052305;28;1886;-75
2021/12/07 03:57:43;;;;;;;;;;;;;;;;;;5085147;28;1184;-75
2021/12/07 04:00:11;;;;;;;;;;;;;;;;;;5071250;28;1136;-75
2021/12/07 04:02:40;;;;;;;;;;;;;;;;;;5105634;28;1250;-76
2021/12/07 04:05:10;;;;;;;;;;;;;;;;;;5088757;28;1076;-75
2021/12/07 04:07:35;;;;;;;;;;;;;;;;;;5107780;28;1186;-76
2021/12/07 04:10:01;;;;;;;;;;;;;;;;;;5106110;28;1171;-76
2021/12/07 04:12:27;;;;;;;;;;;;;;;;;;5091124;28;1262;-75
2021/12/07 04:14:52;;;;;;;;;;;;;;;;;;5055686;28;1959;-76
2021/12/07 04:17:18;;;;;;;;;;;;;;;;;;5065806;28;1147;-76
2021/12/07 04:19:44;;;;;;;;;;;;;;;;;;5068691;28;1266;-76
2021/12/07 04:22:09;;;;;;;;;;;;;;;;;;5072192;28;1207;-76
2021/12/07 04:24:34;;;;;;;;;;;;;;;;;;5073288;28;1348;-76
2021/12/07 04:27:00;;;;;;;;;;;;;;;;;;5064614;28;1081;-76
2021/12/07 04:29:25;;;;;;;;;;;;;;;;;;5083463;28;1310;-75
2021/12/07 04:31:50;;;;;;;;;;;;;;;;;;5104398;28;1080;-76
2021/12/07 04:34:16;;;;;;;;;;;;;;;;;;5106728;28;1894;-74
2021/12/07 04:36:41;;;;;;;;;;;;;;;;;;5088615;28;1171;-74
2021/12/07 04:39:08;;;;;;;;;;;;;;;;;;5087162;28;1151;-75
2021/12/07 04:41:34;;;;;;;;;;;;;;;;;;5089444;28;1139;-75
2021/12/07 04:44:03;;;;;;;;;;;;;;;;;;5083907;28;1354;-75
2021/12/07 04:46:49;;;;;;;;;;;;;;;;;;5086834;28;1279;-75
2021/12/07 05:00:04;;;;;;;;;;;;;;;;;;5087088;28;1294;-76
2021/12/07 05:02:30;;;;;;;;;;;;;;;;;;5065241;28;1124;-76
2021/12/07 05:04:55;;;;;;;;;;;;;;;;;;5052765;28;1203;-75
2021/12/07 05:07:38;;;;;;;;;;;;;;;;;;5084576;28;1051;-75
2021/12/07 05:10:17;;;;;;;;;;;;;;;;;;5080771;28;1230;-75
2021/12/07 05:13:22;;;;;;;;;;;;;;;;;;5047818;28;1196;-75
2021/12/07 05:39:32;;;;;;;;;;;;;;;;;;5087106;28;1031;-76
2021/12/07 05:41:57;;;;;;;;;;;;;;;;;;5064800;28;1386;-75
2021/12/07 05:44:22;;;;;;;;;;;;;;;;;;5065064;28;1410;-75
2021/12/07 05:46:47;;;;;;;;;;;;;;;;;;5049350;28;1306;-76
2021/12/07 05:49:13;;;;;;;;;;;;;;;;;;5082622;28;1155;-75
2021/12/07 05:51:38;;;;;;;;;;;;;;;;;;5088489;28;1203;-76
2021/12/07 05:54:04;;;;;;;;;;;;;;;;;;5070454;28;1917;-76
2021/12/07 05:56:29;;;;;;;;;;;;;;;;;;5071547;28;1270;-75
2021/12/07 05:58:54;;;;;;;;;;;;;;;;;;5083308;28;1167;-76
2021/12/07 06:01:20;;;;;;;;;;;;;;;;;;5075377;28;1262;-75
2021/12/07 06:03:45;;;;;;;;;;;;;;;;;;5049786;28;1176;-75
2021/12/07 06:06:11;;;;;;;;;;;;;;;;;;5065280;28;1291;-76
2021/12/07 06:08:36;;;;;;;;;;;;;;;;;;5073168;28;1204;-75
2021/12/07 06:11:01;;;;;;;;;;;;;;;;;;5089655;28;1365;-76
2021/12/07 06:13:26;;;;;;;;;;;;;;;;;;5084541;28;1192;-75
2021/12/07 06:15:52;;;;;;;;;;;;;;;;;;5088077;28;1890;-77
2021/12/07 06:18:18;;;;;;;;;;;;;;;;;;5079439;28;1395;-76
2021/12/07 06:20:43;;;;;;;;;;;;;;;;;;5091005;28;1592;-76
2021/12/07 06:23:09;;;;;;;;;;;;;;;;;;5108229;28;1274;-76
2021/12/07 06:25:34;;;;;;;;;;;;;;;;;;5070836;28;1198;-77
2021/12/07 06:28:00;;;;;;;;;;;;;;;;;;5049354;28;1156;-76
2021/12/07 06:30:25;;;;;;;;;;;;;;;;;;5058586;28;1333;-75
2021/12/07 06:32:50;;;;;;;;;;;;;;;;;;5052314;28;1168;-77
2021/12/07 06:35:16;;;;;;;;;;;;;;;;;;5078160;28;1973;-76
2021/12/07 06:37:41;;;;;;;;;;;;;;;;;;5090929;28;1167;-76
2021/12/07 06:40:10;;;;;;;;;;;;;;;;;;5071293;28;1386;-76
2021/12/07 06:42:38;;;;;;;;;;;;;;;;;;5065840;28;1219;-76
2021/12/07 06:45:04;;;;;;;;;;;;;;;;;;5070909;28;1294;-76
2021/12/07 06:47:29;;;;;;;;;;;;;;;;;;5050764;28;1222;-75
2021/12/07 06:49:54;;;;;;;;;;;;;;;;;;5088878;28;1164;-75
2021/12/07 06:52:20;;;;;;;;;;;;;;;;;;5092597;28;1380;-76
2021/12/07 06:54:46;;;;;;;;;;;;;;;;;;5091200;28;1963;-77
2021/12/07 06:57:12;;;;;;;;;;;;;;;;;;5106033;28;1171;-76
2021/12/07 06:59:37;;;;;;;;;;;;;;;;;;5072239;28;1210;-75
2021/12/07 07:02:02;;;;;;;;;;;;;;;;;;5082441;28;1116;-75
2021/12/07 07:04:28;;;;;;;;;;;;;;;;;;5086897;28;1370;-76
2021/12/07 07:06:53;;;;;;;;;;;;;;;;;;5069621;28;1344;-75
2021/12/07 07:09:18;;;;;;;;;;;;;;;;;;5069603;28;1136;-75
2021/12/07 07:11:44;;;;;;;;;;;;;;;;;;5075104;28;1152;-77
2021/12/07 07:14:10;;;;;;;;;;;;;;;;;;5087127;28;1890;-75
2021/12/07 07:16:36;;;;;;;;;;;;;;;;;;5090052;28;1382;-75
2021/12/07 07:19:01;;;;;;;;;;;;;;;;;;5108262;28;1187;-75
2021/12/07 07:21:26;;;;;;;;;;;;;;;;;;5073029;28;1231;-75
2021/12/07 07:23:53;;;;;;;;;;;;;;;;;;5073050;28;1519;-77
2021/12/07 07:26:18;;;;;;;;;;;;;;;;;;5089352;28;1217;-76
2021/12/07 07:28:44;;;;;;;;;;;;;;;;;;5070686;28;1270;-76
2021/12/07 07:31:11;;;;;;;;;;;;;;;;;;5108684;28;1047;-76
2021/12/07 07:33:37;;;;;;;;;;;;;;;;;;5089561;28;1933;-76
2021/12/07 07:36:02;;;;;;;;;;;;;;;;;;5075950;28;1258;-76
2021/12/07 07:38:28;;;;;;;;;;;;;;;;;;5069763;28;1345;-76
2021/12/07 07:40:53;;;;;;;;;;;;;;;;;;5070509;28;1407;-76
2021/12/07 07:43:19;;;;;;;;;;;;;;;;;;5048119;28;1551;-75
2021/12/07 07:45:44;;;;;;;;;;;;;;;;;;5054291;28;1595;-75
2021/12/07 07:48:10;;;;;;;;;;;;;;;;;;5068573;28;1436;-76
2021/12/07 07:50:36;;;;;;;;;;;;;;;;;;5068928;28;1148;-76
2021/12/07 07:53:01;;;;;;;;;;;;;;;;;;5068991;28;1328;-75
2021/12/07 07:55:26;;;;;;;;;;;;;;;;;;5100400;28;1979;-76
2021/12/07 07:57:52;;;;;;;;;;;;;;;;;;5085871;28;1290;-75
2021/12/07 08:00:18;;;;;;;;;;;;;;;;;;5090605;28;1155;-75
2021/12/07 08:02:44;;;;;;;;;;;;;;;;;;5071439;28;1191;-75
2021/12/07 08:05:10;;;;;;;;;;;;;;;;;;5102589;28;1171;-75
2021/12/07 08:07:36;;;;;;;;;;;;;;;;;;5083594;28;1334;-76
2021/12/07 08:10:02;;;;;;;;;;;;;;;;;;5090144;28;1367;-76
2021/12/07 08:12:28;;;;;;;;;;;;;;;;;;5066621;28;1225;-76
2021/12/07 08:14:53;;;;;;;;;;;;;;;;;;5069099;28;1898;-76
2021/12/07 08:17:19;;;;;;;;;;;;;;;;;;5075245;28;1404;-76
2021/12/07 08:19:44;;;;;;;;;;;;;;;;;;5073628;28;1387;-76
2021/12/07 08:22:10;;;;;;;;;;;;;;;;;;5089652;28;1195;-76
2021/12/07 08:24:35;;;;;;;;;;;;;;;;;;5067175;28;1191;-76
2021/12/07 08:27:01;;;;;;;;;;;;;;;;;;5066394;28;1323;-76
2021/12/07 08:29:26;;;;;;;;;;;;;;;;;;5062792;28;1358;-76
2021/12/07 08:31:52;;;;;;;;;;;;;;;;;;5065245;28;1187;-76
2021/12/07 08:34:18;;;;;;;;;;;;;;;;;;5067169;28;1961;-75
2021/12/07 08:36:44;;;;;;;;;;;;;;;;;;5065922;28;1227;-76
2021/12/07 08:39:10;;;;;;;;;;;;;;;;;;5068127;28;1263;-76
2021/12/07 08:41:35;;;;;;;;;;;;;;;;;;5065976;28;1345;-76
2021/12/07 08:44:00;;;;;;;;;;;;;;;;;;5096081;28;1028;-76
2021/12/07 08:46:26;;;;;;;;;;;;;;;;;;5065035;28;1620;-76
2021/12/07 08:48:54;;;;;;;;;;;;;;;;;;5073238;28;1189;-76
2021/12/07 08:51:22;;;;;;;;;;;;;;;;;;5062983;28;1350;-76
2021/12/07 08:53:57;;;;;;;;;;;;;;;;;;5048091;28;1921;-75
2021/12/07 09:01:51;;;;;;;;;;;;;;;;;;5064753;28;997;-75
2021/12/07 09:04:17;;;;;;;;;;;;;;;;;;5065406;28;1337;-75
2021/12/07 09:06:46;;;;;;;;;;;;;;;;;;5046575;28;1438;-75
2021/12/07 09:09:12;;;;;;;;;;;;;;;;;;5066376;28;1089;-77
2021/12/07 09:11:37;;;;;;;;;;;;;;;;;;5064645;28;1151;-76
2021/12/07 09:14:03;;;;;;;;;;;;;;;;;;5062969;28;1886;-76
2021/12/07 09:16:28;;;;;;;;;;;;;;;;;;5077650;28;1313;-77
2021/12/07 09:18:53;;;;;;;;;;;;;;;;;;5084882;28;1159;-76
2021/12/07 09:21:24;;;;;;;;;;;;;;;;;;5052184;28;1172;-76
2021/12/07 09:23:50;;;;;;;;;;;;;;;;;;5048168;28;1188;-76
2021/12/07 09:26:15;;;;;;;;;;;;;;;;;;5065025;28;1255;-76
2021/12/07 09:28:41;;;;;;;;;;;;;;;;;;5062699;28;1029;-76
2021/12/07 09:31:13;;;;;;;;;;;;;;;;;;5065105;28;1128;-76
2021/12/07 09:33:40;;;;;;;;;;;;;;;;;;5062543;28;1254;-75
2021/12/07 09:36:06;;;;;;;;;;;;;;;;;;5062032;28;1324;-76
2021/12/07 09:38:32;;;;;;;;;;;;;;;;;;5082754;28;1544;-75
2021/12/07 09:40:57;;;;;;;;;;;;;;;;;;5084554;28;1439;-75
2021/12/07 09:43:27;;;;;;;;;;;;;;;;;;5084542;28;1159;-78
2021/12/07 09:45:52;;;;;;;;;;;;;;;;;;5066471;28;1307;-77
2021/12/07 09:48:18;;;;;;;;;;;;;;;;;;5079181;28;1246;-75
2021/12/07 09:50:44;;;;;;;;;;;;;;;;;;5082029;28;1219;-76
2021/12/07 09:53:11;;;;;;;;;;;;;;;;;;5083288;28;1195;-76
2021/12/07 09:55:37;;;;;;;;;;;;;;;;;;5072935;28;1922;-75
2021/12/07 09:58:03;;;;;;;;;;;;;;;;;;5069170;28;1203;-76
2021/12/07 10:00:28;;;;;;;;;;;;;;;;;;5062796;28;1214;-76
2021/12/07 10:02:54;;;;;;;;;;;;;;;;;;5062134;28;1140;-76
2021/12/07 10:05:24;;;;;;;;;;;;;;;;;;5064467;28;1148;-75
2021/12/07 10:07:50;;;;;;;;;;;;;;;;;;5062457;28;1250;-75
2021/12/07 10:10:27;;;;;;;;;;;;;;;;;;5065834;28;1215;-76
2021/12/07 10:12:53;;;;;;;;;;;;;;;;;;5064885;28;1182;-76
2021/12/07 10:15:19;;;;;;;;;;;;;;;;;;5047930;28;1894;-75
2021/12/07 10:17:58;;;;;;;;;;;;;;;;;;5060692;28;1125;-76
2021/12/07 10:20:33;;;;;;;;;;;;;;;;;;5064572;28;1152;-75
2021/12/07 10:23:21;;;;;;;;;;;;;;;;;;5062018;28;1344;-75
2021/12/07 10:25:47;;;;;;;;;;;;;;;;;;5079146;28;1360;-75
2021/12/07 10:28:30;;;;;;;;;;;;;;;;;;5080385;28;1234;-75
2021/12/07 10:31:00;;;;;;;;;;;;;;;;;;5086925;28;1073;-76
2021/12/07 10:33:33;;;;;;;;;;;;;;;;;;5080124;28;1321;-77
2021/12/07 10:36:09;;;;;;;;;;;;;;;;;;5082967;28;1955;-76
2021/12/07 10:38:34;;;;;;;;;;;;;;;;;;5081674;28;1440;-76
2021/12/07 10:41:02;;;;;;;;;;;;;;;;;;5078134;28;1185;-75
2021/12/07 10:43:43;;;;;;;;;;;;;;;;;;5061736;28;1121;-75
2021/12/07 10:46:27;;;;;;;;;;;;;;;;;;5061882;28;1238;-76
2021/12/07 10:49:12;;;;;;;;;;;;;;;;;;5062607;28;1143;-76
2021/12/07 10:51:37;;;;;;;;;;;;;;;;;;5062860;28;1202;-78
2021/12/07 10:54:03;;;;;;;;;;;;;;;;;;5049342;28;1909;-77
2021/12/07 10:56:36;;;;;;;;;;;;;;;;;;5066754;28;1288;-75
2021/12/07 10:59:04;;;;;;;;;;;;;;;;;;5064481;28;1185;-75
2021/12/07 11:01:34;;;;;;;;;;;;;;;;;;5063944;28;1301;-78
2021/12/07 11:04:17;;;;;;;;;;;;;;;;;;5067492;28;1234;-75
2021/12/07 11:07:01;;;;;;;;;;;;;;;;;;5064118;28;1360;-75
2021/12/07 11:09:30;;;;;;;;;;;;;;;;;;5065473;28;1269;-76
2021/12/07 11:12:44;;;;;;;;;;;;;;;;;;5065220;28;1487;-76
2021/12/07 11:15:11;;;;;;;;;;;;;;;;;;5065751;28;1882;-75
2021/12/07 11:17:36;;;;;;;;;;;;;;;;;;5082729;28;1255;-76
2021/12/07 11:20:03;;;;;;;;;;;;;;;;;;5089613;28;1148;-76
2021/12/07 11:22:31;;;;;;;;;;;;;;;;;;5086147;28;1167;-74
2021/12/07 11:24:57;;;;;;;;;;;;;;;;;;5087572;28;1203;-76
2021/12/07 11:30:18;;;;;;;;;;;;;;;;;;5084268;28;1032;-76
2021/12/07 11:32:51;;;;;;;;;;;;;;;;;;5079617;28;1148;-76
2021/12/07 11:35:35;;;;;;;;;;;;;;;;;;5088850;28;1882;-77
2021/12/07 11:38:04;;;;;;;;;;;;;;;;;;5072057;28;1370;-76
2021/12/07 11:40:36;;;;;;;;;;;;;;;;;;5069722;28;1219;-76
2021/12/07 11:43:02;;;;;;;;;;;;;;;;;;5065306;28;1188;-76
2021/12/07 11:45:33;;;;;;;;;;;;;;;;;;5080814;28;1164;-77
2021/12/07 11:47:59;;;;;;;;;;;;;;;;;;5051745;28;1294;-76
2021/12/07 11:50:35;;;;;;;;;;;;;;;;;;5086912;28;1148;-75
2021/12/07 11:53:00;;;;;;;;;;;;;;;;;;5078855;28;1293;-76
2021/12/07 11:55:26;;;;;;;;;;;;;;;;;;5069267;28;1983;-76
2021/12/07 11:57:52;;;;;;;;;;;;;;;;;;5093338;28;1103;-77
2021/12/07 12:00:20;;;;;;;;;;;;;;;;;;5083660;28;1185;-76
2021/12/07 12:02:46;;;;;;;;;;;;;;;;;;5082319;28;1171;-75
2021/12/07 12:05:11;;;;;;;;;;;;;;;;;;5081003;28;1282;-77
2021/12/07 12:07:40;;;;;;;;;;;;;;;;;;5084621;28;1136;-76
2021/12/07 12:10:06;;;;;;;;;;;;;;;;;;5078660;28;1199;-77
2021/12/07 12:12:49;;;;;;;;;;;;;;;;;;5081632;28;1271;-75
2021/12/07 12:15:35;;;;;;;;;;;;;;;;;;5087674;28;1886;-78
2021/12/07 12:18:04;;;;;;;;;;;;;;;;;;5085066;28;1212;-77
2021/12/07 12:20:37;;;;;;;;;;;;;;;;;;5105701;28;1128;-78
2021/12/07 12:23:05;;;;;;;;;;;;;;;;;;5066517;28;1132;-77
2021/12/07 12:25:31;;;;;;;;;;;;;;;;;;5086915;28;1175;-76
2021/12/07 12:27:57;;;;;;;;;;;;;;;;;;5080274;28;1101;-77
2021/12/07 12:30:22;;;;;;;;;;;;;;;;;;5106940;28;1187;-77
2021/12/07 12:32:53;;;;;;;;;;;;;;;;;;5085086;28;1747;-76
2021/12/07 12:35:25;;;;;;;;;;;;;;;;;;5089248;28;1898;-77
2021/12/07 12:37:50;;;;;;;;;;;;;;;;;;5105098;28;1147;-76
2021/12/07 12:40:22;;;;;;;;;;;;;;;;;;5089167;28;1206;-76
2021/12/07 12:42:49;;;;;;;;;;;;;;;;;;5081799;28;1317;-77
2021/12/07 12:45:27;;;;;;;;;;;;;;;;;;5107441;28;1227;-77
2021/12/07 12:48:01;;;;;;;;;;;;;;;;;;5100276;28;1111;-76
2021/12/07 12:50:53;;;;;;;;;;;;;;;;;;5088140;28;1281;-75
2021/12/07 12:53:23;;;;;;;;;;;;;;;;;;5086751;28;1242;-76
2021/12/07 12:55:55;;;;;;;;;;;;;;;;;;5085830;28;1979;-75
2021/12/07 12:58:20;;;;;;;;;;;;;;;;;;5101590;28;1013;-76
2021/12/07 13:01:00;;;;;;;;;;;;;;;;;;5103652;28;1306;-75
2021/12/07 13:03:40;;;;;;;;;;;;;;;;;;5084996;28;1336;-75
2021/12/07 13:06:05;;;;;;;;;;;;;;;;;;5085870;28;1284;-76
2021/12/07 13:08:31;;;;;;;;;;;;;;;;;;5087063;28;1553;-76
2021/12/07 13:11:00;;;;;;;;;;;;;;;;;;5103735;28;1033;-76
2021/12/07 13:13:31;;;;;;;;;;;;;;;;;;5101908;28;1195;-75
2021/12/07 13:15:56;;;;;;;;;;;;;;;;;;5104130;28;1961;-76
2021/12/07 13:18:24;;;;;;;;;;;;;;;;;;5102685;28;1127;-77
2021/12/07 13:20:50;;;;;;;;;;;;;;;;;;5085736;28;1343;-76
2021/12/07 13:23:16;;;;;;;;;;;;;;;;;;5104074;28;1162;-76
2021/12/07 13:25:44;;;;;;;;;;;;;;;;;;5074219;28;1367;-78
2021/12/07 13:28:21;;;;;;;;;;;;;;;;;;5060995;28;1318;-77
2021/12/07 13:30:55;;;;;;;;;;;;;;;;;;5081807;28;1160;-78
2021/12/07 13:33:24;;;;;;;;;;;;;;;;;;5093821;28;1156;-76
2021/12/07 13:35:50;;;;;;;;;;;;;;;;;;5083405;28;1889;-77
2021/12/07 13:38:23;;;;;;;;;;;;;;;;;;5063567;28;1231;-76
2021/12/07 13:40:50;;;;;;;;;;;;;;;;;;5079672;28;1163;-77
2021/12/07 13:43:29;;;;;;;;;;;;;;;;;;5062678;28;1275;-76
2021/12/07 13:46:07;;;;;;;;;;;;;;;;;;5075505;28;1338;-77
2021/12/07 13:48:33;;;;;;;;;;;;;;;;;;5083273;28;1199;-76
2021/12/07 13:50:58;;;;;;;;;;;;;;;;;;5074325;28;1200;-76
2021/12/07 13:53:26;;;;;;;;;;;;;;;;;;5065406;28;1413;-76
2021/12/07 13:55:52;;;;;;;;;;;;;;;;;;5086038;28;2004;-75
2021/12/07 13:58:17;;;;;;;;;;;;;;;;;;5059228;28;1371;-76
2021/12/07 14:01:01;;;;;;;;;;;;;;;;;;5082903;28;1321;-76
2021/12/07 14:03:27;;;;;;;;;;;;;;;;;;5063835;28;1228;-77
2021/12/07 14:05:52;;;;;;;;;;;;;;;;;;5064174;28;1227;-76
2021/12/07 14:08:17;;;;;;;;;;;;;;;;;;5103400;28;1230;-77
2021/12/07 14:10:43;;;;;;;;;;;;;;;;;;5064352;28;1204;-78
2021/12/07 14:13:08;;;;;;;;;;;;;;;;;;5081562;28;1215;-78
2021/12/07 14:15:35;;;;;;;;;;;;;;;;;;5064613;28;1961;-78
2021/12/07 14:18:05;;;;;;;;;;;;;;;;;;5069255;28;1488;-79
2021/12/07 14:20:33;;;;;;;;;;;;;;;;;;5089856;28;1151;-78
2021/12/07 14:22:59;;;;;;;;;;;;;;;;;;5075076;28;1305;-78
2021/12/07 14:25:25;;;;;;;;;;;;;;;;;;5062578;28;1229;-78
2021/12/07 14:27:53;;;;;;;;;;;;;;;;;;5097928;28;1203;-77
2021/12/07 14:30:18;;;;;;;;;;;;;;;;;;5061600;28;1261;-77
2021/12/07 14:32:45;;;;;;;;;;;;;;;;;;5084597;28;1239;-77
2021/12/07 14:35:14;;;;;;;;;;;;;;;;;;5067484;28;1917;-77
2021/12/07 14:37:40;;;;;;;;;;;;;;;;;;5051179;28;1366;-78
2021/12/07 14:40:06;;;;;;;;;;;;;;;;;;5088464;28;1017;-77
2021/12/07 14:42:32;;;;;;;;;;;;;;;;;;5058548;28;1223;-77
2021/12/07 14:44:58;;;;;;;;;;;;;;;;;;5071495;28;1317;-77
2021/12/07 14:47:23;;;;;;;;;;;;;;;;;;5101293;28;1214;-77
2021/12/07 14:49:52;;;;;;;;;;;;;;;;;;5091384;28;1270;-78
2021/12/07 14:52:36;;;;;;;;;;;;;;;;;;5075263;28;1300;-78
2021/12/07 14:55:03;;;;;;;;;;;;;;;;;;5067919;28;1911;-77
2021/12/07 14:57:28;;;;;;;;;;;;;;;;;;5074850;28;1278;-79
2021/12/07 15:00:00;;;;;;;;;;;;;;;;;;5070592;28;1177;-77
2021/12/07 15:02:26;;;;;;;;;;;;;;;;;;5080014;28;1481;-77
2021/12/07 15:04:59;;;;;;;;;;;;;;;;;;5097608;28;1172;-78
2021/12/07 15:07:31;;;;;;;;;;;;;;;;;;5104558;28;1141;-79
2021/12/07 15:09:57;;;;;;;;;;;;;;;;;;5082764;28;1320;-79
2021/12/07 15:12:24;;;;;;;;;;;;;;;;;;5097448;28;1677;-78
2021/12/07 15:14:57;;;;;;;;;;;;;;;;;;5066518;28;1894;-78
2021/12/07 15:17:23;;;;;;;;;;;;;;;;;;5099454;28;1148;-77
2021/12/07 15:19:48;;;;;;;;;;;;;;;;;;5095932;28;1195;-77
2021/12/07 15:22:14;;;;;;;;;;;;;;;;;;5079753;28;1229;-78
2021/12/07 15:24:39;;;;;;;;;;;;;;;;;;5061637;28;1223;-77
2021/12/07 15:27:08;;;;;;;;;;;;;;;;;;5082137;28;1188;-77
2021/12/07 15:29:34;;;;;;;;;;;;;;;;;;5092033;28;1141;-77
2021/12/07 15:32:09;;;;;;;;;;;;;;;;;;5079731;28;1275;-78
2021/12/07 15:34:36;;;;;;;;;;;;;;;;;;5087828;28;1893;-77
2021/12/07 15:37:05;;;;;;;;;;;;;;;;;;5075500;28;1179;-77
2021/12/07 15:39:32;;;;;;;;;;;;;;;;;;5098061;28;1069;-76
2021/12/07 15:42:00;;;;;;;;;;;;;;;;;;5078155;28;1207;-78
2021/12/07 15:44:33;;;;;;;;;;;;;;;;;;5079890;28;1227;-79
2021/12/07 15:47:02;;;;;;;;;;;;;;;;;;5078217;28;1265;-78
2021/12/07 15:49:29;;;;;;;;;;;;;;;;;;5075376;28;1345;-80
2021/12/07 15:51:56;;;;;;;;;;;;;;;;;;5082735;28;1228;-79
2021/12/07 15:54:21;;;;;;;;;;;;;;;;;;5084825;28;1941;-78
2021/12/07 15:57:05;;;;;;;;;;;;;;;;;;5080479;28;1325;-77
2021/12/07 15:59:38;;;;;;;;;;;;;;;;;;5089376;28;1127;-76
2021/12/07 16:02:07;;;;;;;;;;;;;;;;;;5050535;28;1408;-76
2021/12/07 16:04:34;;;;;;;;;;;;;;;;;;5076212;28;1226;-76
2021/12/07 16:07:00;;;;;;;;;;;;;;;;;;5067810;28;1190;-76
2021/12/07 16:09:25;;;;;;;;;;;;;;;;;;5064041;28;1305;-73
2021/12/07 16:11:52;;;;;;;;;;;;;;;;;;5075586;28;1156;-74
2021/12/07 16:14:24;;;;;;;;;;;;;;;;;;5064434;28;1889;-75
2021/12/07 16:16:51;;;;;;;;;;;;;;;;;;5079575;28;1308;-75
2021/12/07 16:19:28;;;;;;;;;;;;;;;;;;5067309;28;1410;-75
2021/12/07 16:21:57;;;;;;;;;;;;;;;;;;5067673;28;1296;-75
2021/12/07 16:24:23;;;;;;;;;;;;;;;;;;5064057;28;1203;-76
2021/12/07 16:26:50;;;;;;;;;;;;;;;;;;5065553;28;1175;-75
2021/12/07 16:29:15;;;;;;;;;;;;;;;;;;5078889;28;1433;-75
2021/12/07 16:31:41;;;;;;;;;;;;;;;;;;5091476;28;1127;-76
2021/12/07 16:34:06;;;;;;;;;;;;;;;;;;5065169;28;1917;-76
2021/12/07 16:36:32;;;;;;;;;;;;;;;;;;5069389;28;1334;-75
2021/12/07 16:39:01;;;;;;;;;;;;;;;;;;5084014;28;1172;-74
2021/12/07 16:41:26;;;;;;;;;;;;;;;;;;5098770;28;1191;-75
2021/12/07 16:43:55;;;;;;;;;;;;;;;;;;5060633;28;1219;-75
2021/12/07 16:46:21;;;;;;;;;;;;;;;;;;5048122;28;1235;-75
2021/12/07 16:48:47;;;;;;;;;;;;;;;;;;5073205;28;1191;-75
2021/12/07 16:51:12;;;;;;;;;;;;;;;;;;5083221;28;1246;-74
2021/12/07 16:53:38;;;;;;;;;;;;;;;;;;5103323;28;1274;-74
2021/12/07 16:56:03;;;;;;;;;;;;;;;;;;5081721;28;1934;-74
2021/12/07 16:58:29;;;;;;;;;;;;;;;;;;5096116;28;1210;-74
2021/12/07 17:00:54;;;;;;;;;;;;;;;;;;5082963;28;1226;-75
2021/12/07 17:03:23;;;;;;;;;;;;;;;;;;5078987;28;1191;-75
2021/12/07 17:05:49;;;;;;;;;;;;;;;;;;5047570;28;1437;-75
2021/12/07 17:08:15;;;;;;;;;;;;;;;;;;5091669;28;1084;-76
2021/12/07 17:10:41;;;;;;;;;;;;;;;;;;5084660;28;1713;-76
2021/12/07 17:13:06;;;;;;;;;;;;;;;;;;5065411;28;1301;-75
2021/12/07 17:15:34;;;;;;;;;;;;;;;;;;5060722;28;1919;-75
2021/12/07 17:18:00;;;;;;;;;;;;;;;;;;5075302;28;1271;-75
2021/12/07 17:20:26;;;;;;;;;;;;;;;;;;5071830;28;1196;-76
2021/12/07 17:22:52;;;;;;;;;;;;;;;;;;5092147;28;1147;-75
2021/12/07 17:25:19;;;;;;;;;;;;;;;;;;5081187;28;1301;-74
2021/12/07 17:27:50;;;;;;;;;;;;;;;;;;5085341;28;1246;-75
2021/12/07 17:30:17;;;;;;;;;;;;;;;;;;5067969;28;1374;-75
2021/12/07 17:32:45;;;;;;;;;;;;;;;;;;5073476;28;1167;-75
2021/12/07 17:35:11;;;;;;;;;;;;;;;;;;5066280;28;2001;-76
2021/12/07 17:37:36;;;;;;;;;;;;;;;;;;5066924;28;1144;-75
2021/12/07 17:40:06;;;;;;;;;;;;;;;;;;5072926;28;1151;-75
2021/12/07 17:42:32;;;;;;;;;;;;;;;;;;5077292;28;1163;-75
2021/12/07 17:44:57;;;;;;;;;;;;;;;;;;5071758;28;1328;-76
2021/12/07 17:47:23;;;;;;;;;;;;;;;;;;5066193;28;1199;-75
2021/12/07 17:49:48;;;;;;;;;;;;;;;;;;5077576;28;1394;-75
2021/12/07 17:52:14;;;;;;;;;;;;;;;;;;5044652;28;1381;-75
2021/12/07 17:54:39;;;;;;;;;;;;;;;;;;5068991;28;1967;-75
2021/12/07 17:57:08;;;;;;;;;;;;;;;;;;5074823;28;1452;-75
2021/12/07 17:59:34;;;;;;;;;;;;;;;;;;5079562;28;1317;-75
2021/12/07 18:02:00;;;;;;;;;;;;;;;;;;5049732;28;1328;-76
2021/12/07 18:04:25;;;;;;;;;;;;;;;;;;5058472;28;1176;-75
2021/12/07 18:06:51;;;;;;;;;;;;;;;;;;5047542;28;1330;-75
2021/12/07 18:09:16;;;;;;;;;;;;;;;;;;5061504;28;1195;-75
2021/12/07 18:11:41;;;;;;;;;;;;;;;;;;5073900;28;1248;-76
2021/12/07 18:14:14;;;;;;;;;;;;;;;;;;5057595;28;1944;-75
2021/12/07 18:16:40;;;;;;;;;;;;;;;;;;5077508;28;1097;-75
2021/12/07 18:19:13;;;;;;;;;;;;;;;;;;5065601;28;1155;-76
2021/12/07 18:21:38;;;;;;;;;;;;;;;;;;5083006;28;1321;-74
2021/12/07 18:24:07;;;;;;;;;;;;;;;;;;5062048;28;1270;-74
2021/12/07 18:26:33;;;;;;;;;;;;;;;;;;5066200;28;1237;-75
2021/12/07 18:28:59;;;;;;;;;;;;;;;;;;5056376;28;1324;-74
2021/12/07 18:31:24;;;;;;;;;;;;;;;;;;5063663;28;1033;-73
2021/12/07 18:33:50;;;;;;;;;;;;;;;;;;5063908;28;1250;-75
2021/12/07 18:36:16;;;;;;;;;;;;;;;;;;5045266;28;1879;-74
2021/12/07 18:38:45;;;;;;;;;;;;;;;;;;5065115;28;1176;-73
2021/12/07 18:41:14;;;;;;;;;;;;;;;;;;5082968;28;1196;-75
2021/12/07 18:43:39;;;;;;;;;;;;;;;;;;5052898;28;1232;-75
2021/12/07 18:46:05;;;;;;;;;;;;;;;;;;5015708;28;1393302;-75